KHUF/HUF METAR and TAF weather

Enter ICAO airport designator
Station Type Date Time Source
KHUF METAR 2019/08/18 09:39 UTC NOAA

KHUF 180939Z 15005KT 2 1/2SM BR CLR 22/21 A2988 RMK AO2 T02170211


Station Type Date Time Source
KHUF Decoded METAR 2019/08/18 09:39 UTC NOAA

Station name not available
Aug 18, 2019 - 05:39 AM EDT / 2019.08.18 0939 UTC
Wind: from the SSE (150 degrees) at 6 MPH (5 KT):0
Visibility: 2 1/2 mile(s):0
Sky conditions: clear
Weather: mist
Temperature: 71.1 F (21.7 C)
Dew Point: 70.0 F (21.1 C)
Relative Humidity: 96%
Pressure (altimeter): 29.88 in. Hg (1011 hPa)
ob: KHUF 180939Z 15005KT 2 1/2SM BR CLR 22/21 A2988 RMK AO2 T02170211
cycle: 9

Station Type Date Time Source
KHUF TAF 2019/08/18 07:22 UTC NOAA

TAF
AMD KHUF 180719Z 1807/1906 19006KT P6SM SCT050 BKN250
TEMPO 1807/1811 1/4SM FG
FM181800 22010G18KT P6SM SCT040 BKN200
FM190300 VRB04KT P6SM SCT200

Example: see airport list